sensor_id;sensor_type;location;lat;lon;timestamp;P1;durP1;ratioP1;P2;durP2;ratioP2
1699;SDS011;847;48.058;7.810;2023-09-18T00:00:21;4.63;;;3.20;;
1699;SDS011;847;48.058;7.810;2023-09-18T00:02:48;7.37;;;3.27;;
1699;SDS011;847;48.058;7.810;2023-09-18T00:05:14;7.93;;;3.00;;
1699;SDS011;847;48.058;7.810;2023-09-18T00:07:41;6.30;;;3.50;;
1699;SDS011;847;48.058;7.810;2023-09-18T00:10:09;5.33;;;3.20;;
1699;SDS011;847;48.058;7.810;2023-09-18T00:12:36;8.90;;;3.90;;
1699;SDS011;847;48.058;7.810;2023-09-18T00:15:04;10.50;;;4.00;;
1699;SDS011;847;48.058;7.810;2023-09-18T00:17:35;12.73;;;3.83;;
1699;SDS011;847;48.058;7.810;2023-09-18T00:20:01;6.87;;;3.67;;
1699;SDS011;847;48.058;7.810;2023-09-18T00:22:30;6.33;;;3.60;;
1699;SDS011;847;48.058;7.810;2023-09-18T00:24:57;6.20;;;3.60;;
1699;SDS011;847;48.058;7.810;2023-09-18T00:27:24;9.17;;;4.10;;
1699;SDS011;847;48.058;7.810;2023-09-18T00:29:50;7.37;;;3.80;;
1699;SDS011;847;48.058;7.810;2023-09-18T00:32:17;9.37;;;3.67;;
1699;SDS011;847;48.058;7.810;2023-09-18T00:34:45;7.20;;;4.40;;
1699;SDS011;847;48.058;7.810;2023-09-18T00:37:12;4.87;;;3.47;;
1699;SDS011;847;48.058;7.810;2023-09-18T00:39:38;6.40;;;3.73;;
1699;SDS011;847;48.058;7.810;2023-09-18T00:42:05;8.07;;;3.70;;
1699;SDS011;847;48.058;7.810;2023-09-18T00:44:32;6.00;;;3.40;;
1699;SDS011;847;48.058;7.810;2023-09-18T00:46:59;7.83;;;3.10;;
1699;SDS011;847;48.058;7.810;2023-09-18T00:49:25;6.97;;;3.90;;
1699;SDS011;847;48.058;7.810;2023-09-18T00:51:54;4.80;;;3.10;;
1699;SDS011;847;48.058;7.810;2023-09-18T00:54:20;7.57;;;3.47;;
1699;SDS011;847;48.058;7.810;2023-09-18T00:56:48;9.37;;;3.97;;
1699;SDS011;847;48.058;7.810;2023-09-18T00:59:18;4.60;;;3.27;;
1699;SDS011;847;48.058;7.810;2023-09-18T01:01:46;5.63;;;3.53;;
1699;SDS011;847;48.058;7.810;2023-09-18T01:04:14;6.60;;;3.50;;
1699;SDS011;847;48.058;7.810;2023-09-18T01:06:41;5.27;;;2.80;;
1699;SDS011;847;48.058;7.810;2023-09-18T01:09:10;9.07;;;3.87;;
1699;SDS011;847;48.058;7.810;2023-09-18T01:11:42;4.50;;;4.10;;
1699;SDS011;847;48.058;7.810;2023-09-18T01:14:14;5.10;;;3.00;;
1699;SDS011;847;48.058;7.810;2023-09-18T01:16:48;5.50;;;3.83;;
1699;SDS011;847;48.058;7.810;2023-09-18T01:19:33;5.03;;;3.87;;
1699;SDS011;847;48.058;7.810;2023-09-18T01:22:02;7.20;;;3.60;;
1699;SDS011;847;48.058;7.810;2023-09-18T01:24:30;5.43;;;3.10;;
1699;SDS011;847;48.058;7.810;2023-09-18T01:26:57;10.47;;;3.73;;
1699;SDS011;847;48.058;7.810;2023-09-18T01:29:24;5.07;;;3.47;;
1699;SDS011;847;48.058;7.810;2023-09-18T01:31:51;4.90;;;3.40;;
1699;SDS011;847;48.058;7.810;2023-09-18T01:34:18;11.30;;;4.13;;
1699;SDS011;847;48.058;7.810;2023-09-18T01:36:47;4.33;;;3.10;;
1699;SDS011;847;48.058;7.810;2023-09-18T01:39:16;10.20;;;3.27;;
1699;SDS011;847;48.058;7.810;2023-09-18T01:41:45;7.10;;;3.43;;
1699;SDS011;847;48.058;7.810;2023-09-18T01:44:13;5.90;;;3.07;;
1699;SDS011;847;48.058;7.810;2023-09-18T01:46:39;4.97;;;3.30;;
1699;SDS011;847;48.058;7.810;2023-09-18T01:49:08;4.33;;;3.17;;
1699;SDS011;847;48.058;7.810;2023-09-18T01:51:34;5.70;;;3.40;;
1699;SDS011;847;48.058;7.810;2023-09-18T01:54:01;8.97;;;3.60;;
1699;SDS011;847;48.058;7.810;2023-09-18T01:56:28;6.83;;;3.87;;
1699;SDS011;847;48.058;7.810;2023-09-18T01:58:57;5.13;;;3.73;;
1699;SDS011;847;48.058;7.810;2023-09-18T02:01:24;5.70;;;3.70;;
1699;SDS011;847;48.058;7.810;2023-09-18T02:03:51;7.57;;;3.57;;
1699;SDS011;847;48.058;7.810;2023-09-18T02:06:18;6.30;;;3.30;;
1699;SDS011;847;48.058;7.810;2023-09-18T02:08:45;6.40;;;2.97;;
1699;SDS011;847;48.058;7.810;2023-09-18T02:11:12;6.30;;;3.97;;
1699;SDS011;847;48.058;7.810;2023-09-18T02:13:38;8.47;;;3.63;;
1699;SDS011;847;48.058;7.810;2023-09-18T02:16:08;9.00;;;3.93;;
1699;SDS011;847;48.058;7.810;2023-09-18T02:18:35;6.70;;;2.80;;
1699;SDS011;847;48.058;7.810;2023-09-18T02:21:02;7.40;;;3.57;;
1699;SDS011;847;48.058;7.810;2023-09-18T02:23:29;5.70;;;3.63;;
1699;SDS011;847;48.058;7.810;2023-09-18T02:25:57;7.03;;;3.70;;
1699;SDS011;847;48.058;7.810;2023-09-18T02:28:25;7.43;;;3.50;;
1699;SDS011;847;48.058;7.810;2023-09-18T02:30:51;5.20;;;3.60;;
1699;SDS011;847;48.058;7.810;2023-09-18T02:33:19;7.50;;;4.17;;
1699;SDS011;847;48.058;7.810;2023-09-18T02:35:46;9.53;;;4.33;;
1699;SDS011;847;48.058;7.810;2023-09-18T02:38:13;18.30;;;6.10;;
1699;SDS011;847;48.058;7.810;2023-09-18T02:40:40;11.47;;;5.20;;
1699;SDS011;847;48.058;7.810;2023-09-18T02:43:06;11.67;;;5.00;;
1699;SDS011;847;48.058;7.810;2023-09-18T02:45:35;8.70;;;4.63;;
1699;SDS011;847;48.058;7.810;2023-09-18T02:48:05;10.90;;;6.00;;
1699;SDS011;847;48.058;7.810;2023-09-18T02:50:34;18.33;;;5.00;;
1699;SDS011;847;48.058;7.810;2023-09-18T02:53:00;15.30;;;5.70;;
1699;SDS011;847;48.058;7.810;2023-09-18T02:55:28;14.20;;;5.17;;
1699;SDS011;847;48.058;7.810;2023-09-18T02:57:55;15.43;;;5.70;;
1699;SDS011;847;48.058;7.810;2023-09-18T03:00:21;11.87;;;5.67;;
1699;SDS011;847;48.058;7.810;2023-09-18T03:02:48;11.50;;;4.90;;
1699;SDS011;847;48.058;7.810;2023-09-18T03:05:15;11.20;;;4.87;;
1699;SDS011;847;48.058;7.810;2023-09-18T03:07:43;10.23;;;4.90;;
1699;SDS011;847;48.058;7.810;2023-09-18T03:10:10;10.67;;;4.43;;
1699;SDS011;847;48.058;7.810;2023-09-18T03:12:41;13.23;;;4.63;;
1699;SDS011;847;48.058;7.810;2023-09-18T03:15:08;12.37;;;4.90;;
1699;SDS011;847;48.058;7.810;2023-09-18T03:17:36;7.07;;;4.00;;
1699;SDS011;847;48.058;7.810;2023-09-18T03:20:06;8.17;;;3.87;;
1699;SDS011;847;48.058;7.810;2023-09-18T03:22:33;10.67;;;3.90;;
1699;SDS011;847;48.058;7.810;2023-09-18T03:25:02;12.47;;;3.90;;
1699;SDS011;847;48.058;7.810;2023-09-18T03:27:29;6.90;;;3.90;;
1699;SDS011;847;48.058;7.810;2023-09-18T03:29:58;7.53;;;3.30;;
1699;SDS011;847;48.058;7.810;2023-09-18T03:32:25;8.00;;;3.70;;
1699;SDS011;847;48.058;7.810;2023-09-18T03:34:52;8.00;;;3.37;;
1699;SDS011;847;48.058;7.810;2023-09-18T03:37:19;3.90;;;2.97;;
1699;SDS011;847;48.058;7.810;2023-09-18T03:39:46;8.70;;;3.10;;
1699;SDS011;847;48.058;7.810;2023-09-18T03:42:13;10.97;;;3.93;;
1699;SDS011;847;48.058;7.810;2023-09-18T03:44:40;8.00;;;3.60;;
1699;SDS011;847;48.058;7.810;2023-09-18T03:47:07;7.30;;;3.60;;
1699;SDS011;847;48.058;7.810;2023-09-18T03:49:33;6.73;;;3.50;;
1699;SDS011;847;48.058;7.810;2023-09-18T03:52:00;6.97;;;3.73;;
1699;SDS011;847;48.058;7.810;2023-09-18T03:54:27;9.80;;;3.33;;
1699;SDS011;847;48.058;7.810;2023-09-18T03:56:54;6.97;;;3.70;;
1699;SDS011;847;48.058;7.810;2023-09-18T03:59:22;3.33;;;2.70;;
1699;SDS011;847;48.058;7.810;2023-09-18T04:01:49;7.20;;;3.33;;
1699;SDS011;847;48.058;7.810;2023-09-18T04:04:16;7.40;;;3.90;;
1699;SDS011;847;48.058;7.810;2023-09-18T04:06:43;6.20;;;2.90;;
1699;SDS011;847;48.058;7.810;2023-09-18T04:09:11;10.77;;;3.43;;
1699;SDS011;847;48.058;7.810;2023-09-18T04:11:40;9.90;;;3.07;;
1699;SDS011;847;48.058;7.810;2023-09-18T04:14:07;7.47;;;3.30;;
1699;SDS011;847;48.058;7.810;2023-09-18T04:16:35;6.97;;;3.40;;
1699;SDS011;847;48.058;7.810;2023-09-18T04:19:02;5.73;;;2.53;;
1699;SDS011;847;48.058;7.810;2023-09-18T04:21:29;6.37;;;2.50;;
1699;SDS011;847;48.058;7.810;2023-09-18T04:23:56;9.80;;;2.90;;
1699;SDS011;847;48.058;7.810;2023-09-18T04:26:23;6.50;;;3.30;;
1699;SDS011;847;48.058;7.810;2023-09-18T04:28:54;7.00;;;2.70;;
1699;SDS011;847;48.058;7.810;2023-09-18T04:31:21;5.17;;;2.40;;
1699;SDS011;847;48.058;7.810;2023-09-18T04:33:49;4.60;;;3.53;;
1699;SDS011;847;48.058;7.810;2023-09-18T04:36:16;7.07;;;2.53;;
1699;SDS011;847;48.058;7.810;2023-09-18T04:38:45;9.20;;;2.27;;
1699;SDS011;847;48.058;7.810;2023-09-18T04:41:13;4.27;;;1.90;;
1699;SDS011;847;48.058;7.810;2023-09-18T04:43:40;6.20;;;2.77;;
1699;SDS011;847;48.058;7.810;2023-09-18T04:46:07;3.90;;;2.30;;
1699;SDS011;847;48.058;7.810;2023-09-18T04:48:34;3.87;;;1.97;;
1699;SDS011;847;48.058;7.810;2023-09-18T04:51:02;3.90;;;2.40;;
1699;SDS011;847;48.058;7.810;2023-09-18T04:53:30;4.07;;;2.37;;
1699;SDS011;847;48.058;7.810;2023-09-18T04:55:57;2.90;;;2.10;;
1699;SDS011;847;48.058;7.810;2023-09-18T04:58:24;6.93;;;2.33;;
1699;SDS011;847;48.058;7.810;2023-09-18T05:00:54;5.23;;;1.87;;
1699;SDS011;847;48.058;7.810;2023-09-18T05:03:21;2.30;;;1.43;;
1699;SDS011;847;48.058;7.810;2023-09-18T05:05:48;2.63;;;1.50;;
1699;SDS011;847;48.058;7.810;2023-09-18T05:08:16;4.77;;;2.10;;
1699;SDS011;847;48.058;7.810;2023-09-18T05:10:43;5.87;;;1.97;;
1699;SDS011;847;48.058;7.810;2023-09-18T05:13:10;3.93;;;1.67;;
1699;SDS011;847;48.058;7.810;2023-09-18T05:15:37;2.80;;;1.70;;
1699;SDS011;847;48.058;7.810;2023-09-18T05:18:04;4.93;;;1.43;;
1699;SDS011;847;48.058;7.810;2023-09-18T05:20:31;3.97;;;1.33;;
1699;SDS011;847;48.058;7.810;2023-09-18T05:23:00;5.10;;;1.60;;
1699;SDS011;847;48.058;7.810;2023-09-18T05:25:28;3.37;;;1.73;;
1699;SDS011;847;48.058;7.810;2023-09-18T05:27:57;2.83;;;1.50;;
1699;SDS011;847;48.058;7.810;2023-09-18T05:30:25;2.77;;;1.70;;
1699;SDS011;847;48.058;7.810;2023-09-18T05:32:56;6.33;;;1.60;;
1699;SDS011;847;48.058;7.810;2023-09-18T05:35:27;3.50;;;1.80;;
1699;SDS011;847;48.058;7.810;2023-09-18T05:37:54;4.13;;;1.70;;
1699;SDS011;847;48.058;7.810;2023-09-18T05:40:23;4.77;;;1.77;;
1699;SDS011;847;48.058;7.810;2023-09-18T05:42:53;7.33;;;2.30;;
1699;SDS011;847;48.058;7.810;2023-09-18T05:45:20;5.23;;;2.10;;
1699;SDS011;847;48.058;7.810;2023-09-18T05:47:47;4.87;;;2.27;;
1699;SDS011;847;48.058;7.810;2023-09-18T05:50:14;6.80;;;2.73;;
1699;SDS011;847;48.058;7.810;2023-09-18T05:52:42;7.50;;;2.83;;
1699;SDS011;847;48.058;7.810;2023-09-18T05:55:12;8.27;;;3.00;;
1699;SDS011;847;48.058;7.810;2023-09-18T05:57:40;3.37;;;2.30;;
1699;SDS011;847;48.058;7.810;2023-09-18T06:00:09;6.70;;;2.37;;
1699;SDS011;847;48.058;7.810;2023-09-18T06:02:38;3.83;;;2.10;;
1699;SDS011;847;48.058;7.810;2023-09-18T06:05:05;5.90;;;2.70;;
1699;SDS011;847;48.058;7.810;2023-09-18T06:07:36;6.47;;;3.27;;
1699;SDS011;847;48.058;7.810;2023-09-18T06:10:04;5.27;;;2.70;;
1699;SDS011;847;48.058;7.810;2023-09-18T06:12:31;5.63;;;2.90;;
1699;SDS011;847;48.058;7.810;2023-09-18T06:14:58;5.83;;;3.10;;
1699;SDS011;847;48.058;7.810;2023-09-18T06:17:26;9.57;;;3.37;;
1699;SDS011;847;48.058;7.810;2023-09-18T06:19:52;15.77;;;4.70;;
1699;SDS011;847;48.058;7.810;2023-09-18T06:22:20;5.63;;;2.63;;
1699;SDS011;847;48.058;7.810;2023-09-18T06:24:47;6.80;;;3.30;;
1699;SDS011;847;48.058;7.810;2023-09-18T06:27:14;6.23;;;2.40;;
1699;SDS011;847;48.058;7.810;2023-09-18T06:29:40;6.23;;;2.97;;
1699;SDS011;847;48.058;7.810;2023-09-18T06:32:08;4.90;;;1.97;;
1699;SDS011;847;48.058;7.810;2023-09-18T06:34:36;5.73;;;2.70;;
1699;SDS011;847;48.058;7.810;2023-09-18T06:37:03;4.80;;;1.77;;
1699;SDS011;847;48.058;7.810;2023-09-18T06:39:31;4.60;;;2.47;;
1699;SDS011;847;48.058;7.810;2023-09-18T06:41:58;3.93;;;2.27;;
1699;SDS011;847;48.058;7.810;2023-09-18T06:44:25;5.07;;;2.20;;
1699;SDS011;847;48.058;7.810;2023-09-18T06:46:51;4.90;;;1.63;;
1699;SDS011;847;48.058;7.810;2023-09-18T06:49:18;2.87;;;1.77;;
1699;SDS011;847;48.058;7.810;2023-09-18T06:51:47;6.07;;;2.90;;
1699;SDS011;847;48.058;7.810;2023-09-18T06:54:13;11.67;;;3.73;;
1699;SDS011;847;48.058;7.810;2023-09-18T06:56:40;6.47;;;2.87;;
1699;SDS011;847;48.058;7.810;2023-09-18T06:59:09;7.97;;;2.30;;
1699;SDS011;847;48.058;7.810;2023-09-18T07:01:36;7.93;;;2.33;;
1699;SDS011;847;48.058;7.810;2023-09-18T07:04:04;8.13;;;2.70;;
1699;SDS011;847;48.058;7.810;2023-09-18T07:06:31;6.27;;;2.73;;
1699;SDS011;847;48.058;7.810;2023-09-18T07:08:59;5.60;;;2.33;;
1699;SDS011;847;48.058;7.810;2023-09-18T07:11:28;5.97;;;2.10;;
1699;SDS011;847;48.058;7.810;2023-09-18T07:13:55;8.63;;;3.03;;
1699;SDS011;847;48.058;7.810;2023-09-18T07:16:22;8.30;;;2.47;;
1699;SDS011;847;48.058;7.810;2023-09-18T07:18:49;7.10;;;2.27;;
1699;SDS011;847;48.058;7.810;2023-09-18T07:21:16;5.17;;;2.17;;
1699;SDS011;847;48.058;7.810;2023-09-18T07:23:43;3.73;;;2.30;;
1699;SDS011;847;48.058;7.810;2023-09-18T07:26:14;6.03;;;1.90;;
1699;SDS011;847;48.058;7.810;2023-09-18T07:28:40;3.53;;;1.83;;
1699;SDS011;847;48.058;7.810;2023-09-18T07:31:09;5.17;;;2.20;;
1699;SDS011;847;48.058;7.810;2023-09-18T07:33:39;9.10;;;3.23;;
1699;SDS011;847;48.058;7.810;2023-09-18T07:36:06;4.87;;;2.13;;
1699;SDS011;847;48.058;7.810;2023-09-18T07:38:35;4.30;;;1.93;;
1699;SDS011;847;48.058;7.810;2023-09-18T07:41:01;4.93;;;1.70;;
1699;SDS011;847;48.058;7.810;2023-09-18T07:43:29;4.00;;;1.83;;
1699;SDS011;847;48.058;7.810;2023-09-18T07:45:56;5.07;;;2.23;;
1699;SDS011;847;48.058;7.810;2023-09-18T07:48:24;8.20;;;2.53;;
1699;SDS011;847;48.058;7.810;2023-09-18T07:50:51;5.63;;;2.57;;
1699;SDS011;847;48.058;7.810;2023-09-18T07:53:19;3.87;;;2.27;;
1699;SDS011;847;48.058;7.810;2023-09-18T07:55:47;8.13;;;2.40;;
1699;SDS011;847;48.058;7.810;2023-09-18T07:58:15;8.20;;;2.70;;
1699;SDS011;847;48.058;7.810;2023-09-18T08:00:43;6.70;;;2.17;;
1699;SDS011;847;48.058;7.810;2023-09-18T08:03:10;5.10;;;2.07;;
1699;SDS011;847;48.058;7.810;2023-09-18T08:05:36;8.50;;;3.10;;
1699;SDS011;847;48.058;7.810;2023-09-18T08:08:03;7.17;;;2.50;;
1699;SDS011;847;48.058;7.810;2023-09-18T08:10:31;6.03;;;2.43;;
1699;SDS011;847;48.058;7.810;2023-09-18T08:12:58;4.20;;;1.93;;
1699;SDS011;847;48.058;7.810;2023-09-18T08:15:25;3.70;;;1.63;;
1699;SDS011;847;48.058;7.810;2023-09-18T08:17:53;2.73;;;1.73;;
1699;SDS011;847;48.058;7.810;2023-09-18T08:20:20;4.20;;;1.70;;
1699;SDS011;847;48.058;7.810;2023-09-18T08:22:47;4.20;;;1.67;;
1699;SDS011;847;48.058;7.810;2023-09-18T08:25:15;16.10;;;2.00;;
1699;SDS011;847;48.058;7.810;2023-09-18T08:27:42;3.77;;;1.47;;
1699;SDS011;847;48.058;7.810;2023-09-18T08:30:12;3.03;;;1.43;;
1699;SDS011;847;48.058;7.810;2023-09-18T08:32:39;3.10;;;1.47;;
1699;SDS011;847;48.058;7.810;2023-09-18T08:35:09;3.90;;;1.73;;
1699;SDS011;847;48.058;7.810;2023-09-18T08:37:35;2.67;;;1.50;;
1699;SDS011;847;48.058;7.810;2023-09-18T08:40:02;2.50;;;1.80;;
1699;SDS011;847;48.058;7.810;2023-09-18T08:42:34;10.20;;;1.90;;
1699;SDS011;847;48.058;7.810;2023-09-18T08:45:02;5.30;;;1.60;;
1699;SDS011;847;48.058;7.810;2023-09-18T08:47:34;2.30;;;1.43;;
1699;SDS011;847;48.058;7.810;2023-09-18T08:50:01;5.27;;;1.50;;
1699;SDS011;847;48.058;7.810;2023-09-18T08:52:30;4.30;;;1.70;;
1699;SDS011;847;48.058;7.810;2023-09-18T08:54:57;3.20;;;1.70;;
1699;SDS011;847;48.058;7.810;2023-09-18T08:57:25;2.20;;;1.70;;
1699;SDS011;847;48.058;7.810;2023-09-18T08:59:55;3.50;;;1.33;;
1699;SDS011;847;48.058;7.810;2023-09-18T09:02:23;4.03;;;2.07;;
1699;SDS011;847;48.058;7.810;2023-09-18T09:04:50;4.53;;;1.60;;
1699;SDS011;847;48.058;7.810;2023-09-18T09:07:17;5.80;;;1.67;;
1699;SDS011;847;48.058;7.810;2023-09-18T09:09:45;3.73;;;1.30;;
1699;SDS011;847;48.058;7.810;2023-09-18T09:12:12;5.70;;;1.80;;
1699;SDS011;847;48.058;7.810;2023-09-18T09:14:39;4.47;;;1.90;;
1699;SDS011;847;48.058;7.810;2023-09-18T09:17:07;3.87;;;1.50;;
1699;SDS011;847;48.058;7.810;2023-09-18T09:19:35;3.67;;;1.97;;
1699;SDS011;847;48.058;7.810;2023-09-18T09:22:04;7.17;;;1.63;;
1699;SDS011;847;48.058;7.810;2023-09-18T09:24:36;6.73;;;1.53;;
1699;SDS011;847;48.058;7.810;2023-09-18T09:27:05;4.67;;;1.60;;
1699;SDS011;847;48.058;7.810;2023-09-18T09:29:33;5.17;;;1.70;;
1699;SDS011;847;48.058;7.810;2023-09-18T09:32:11;4.03;;;1.70;;
1699;SDS011;847;48.058;7.810;2023-09-18T09:34:40;4.67;;;1.80;;
1699;SDS011;847;48.058;7.810;2023-09-18T09:37:08;2.20;;;1.57;;
1699;SDS011;847;48.058;7.810;2023-09-18T09:39:45;4.17;;;1.60;;
1699;SDS011;847;48.058;7.810;2023-09-18T09:42:16;1.73;;;1.10;;
1699;SDS011;847;48.058;7.810;2023-09-18T09:44:48;3.20;;;1.67;;
1699;SDS011;847;48.058;7.810;2023-09-18T09:47:31;2.80;;;1.70;;
1699;SDS011;847;48.058;7.810;2023-09-18T09:50:01;2.50;;;1.73;;
1699;SDS011;847;48.058;7.810;2023-09-18T09:52:34;2.83;;;1.67;;
1699;SDS011;847;48.058;7.810;2023-09-18T09:55:02;3.50;;;1.50;;
1699;SDS011;847;48.058;7.810;2023-09-18T09:57:31;2.50;;;1.40;;
1699;SDS011;847;48.058;7.810;2023-09-18T10:00:13;3.93;;;1.60;;
1699;SDS011;847;48.058;7.810;2023-09-18T10:02:51;3.37;;;1.30;;
1699;SDS011;847;48.058;7.810;2023-09-18T10:05:24;1.87;;;1.40;;
1699;SDS011;847;48.058;7.810;2023-09-18T10:07:54;3.03;;;1.40;;
1699;SDS011;847;48.058;7.810;2023-09-18T10:10:25;3.23;;;1.30;;
1699;SDS011;847;48.058;7.810;2023-09-18T10:12:57;2.30;;;1.50;;
1699;SDS011;847;48.058;7.810;2023-09-18T10:15:29;1.40;;;1.27;;
1699;SDS011;847;48.058;7.810;2023-09-18T10:17:58;4.70;;;1.53;;
1699;SDS011;847;48.058;7.810;2023-09-18T10:20:26;3.00;;;1.60;;
1699;SDS011;847;48.058;7.810;2023-09-18T10:22:56;2.83;;;1.73;;
1699;SDS011;847;48.058;7.810;2023-09-18T10:25:28;1.53;;;1.07;;
1699;SDS011;847;48.058;7.810;2023-09-18T10:27:57;1.50;;;1.20;;
1699;SDS011;847;48.058;7.810;2023-09-18T10:30:27;2.40;;;1.53;;
1699;SDS011;847;48.058;7.810;2023-09-18T10:32:55;3.87;;;1.40;;
1699;SDS011;847;48.058;7.810;2023-09-18T10:35:24;2.57;;;1.60;;
1699;SDS011;847;48.058;7.810;2023-09-18T10:37:51;5.00;;;1.50;;
1699;SDS011;847;48.058;7.810;2023-09-18T10:40:20;1.40;;;1.30;;
1699;SDS011;847;48.058;7.810;2023-09-18T10:42:48;1.80;;;1.10;;
1699;SDS011;847;48.058;7.810;2023-09-18T10:45:19;1.57;;;1.33;;
1699;SDS011;847;48.058;7.810;2023-09-18T10:47:46;3.07;;;1.13;;
1699;SDS011;847;48.058;7.810;2023-09-18T10:50:22;3.23;;;1.27;;
1699;SDS011;847;48.058;7.810;2023-09-18T10:52:50;3.00;;;1.20;;
1699;SDS011;847;48.058;7.810;2023-09-18T10:55:17;1.43;;;1.20;;
1699;SDS011;847;48.058;7.810;2023-09-18T10:57:50;2.17;;;1.27;;
1699;SDS011;847;48.058;7.810;2023-09-18T11:00:17;1.50;;;1.30;;
1699;SDS011;847;48.058;7.810;2023-09-18T11:02:48;3.87;;;1.40;;
1699;SDS011;847;48.058;7.810;2023-09-18T11:05:26;4.30;;;1.63;;
1699;SDS011;847;48.058;7.810;2023-09-18T11:11:00;1.67;;;1.50;;
1699;SDS011;847;48.058;7.810;2023-09-18T11:13:35;1.27;;;1.10;;
1699;SDS011;847;48.058;7.810;2023-09-18T11:16:16;1.73;;;1.13;;
1699;SDS011;847;48.058;7.810;2023-09-18T11:18:48;3.30;;;1.20;;
1699;SDS011;847;48.058;7.810;2023-09-18T11:21:23;3.73;;;1.33;;
1699;SDS011;847;48.058;7.810;2023-09-18T11:23:58;1.47;;;1.03;;
1699;SDS011;847;48.058;7.810;2023-09-18T11:26:30;2.40;;;1.20;;
1699;SDS011;847;48.058;7.810;2023-09-18T11:29:00;1.20;;;1.10;;
1699;SDS011;847;48.058;7.810;2023-09-18T11:34:19;4.13;;;1.30;;
1699;SDS011;847;48.058;7.810;2023-09-18T11:36:47;3.17;;;1.00;;
1699;SDS011;847;48.058;7.810;2023-09-18T11:39:32;3.53;;;1.40;;
1699;SDS011;847;48.058;7.810;2023-09-18T11:42:10;1.50;;;1.00;;
1699;SDS011;847;48.058;7.810;2023-09-18T11:44:38;1.40;;;1.10;;
1699;SDS011;847;48.058;7.810;2023-09-18T11:47:13;1.43;;;1.23;;
1699;SDS011;847;48.058;7.810;2023-09-18T11:49:46;0.87;;;0.73;;
1699;SDS011;847;48.058;7.810;2023-09-18T11:52:19;1.73;;;0.87;;
1699;SDS011;847;48.058;7.810;2023-09-18T11:54:47;2.67;;;1.27;;
1699;SDS011;847;48.058;7.810;2023-09-18T11:57:15;1.70;;;1.03;;
1699;SDS011;847;48.058;7.810;2023-09-18T11:59:43;2.57;;;1.23;;
1699;SDS011;847;48.058;7.810;2023-09-18T12:02:12;1.07;;;0.97;;
1699;SDS011;847;48.058;7.810;2023-09-18T12:04:45;1.43;;;0.93;;
1699;SDS011;847;48.058;7.810;2023-09-18T12:07:13;3.67;;;1.67;;
1699;SDS011;847;48.058;7.810;2023-09-18T12:09:39;1.67;;;1.40;;
1699;SDS011;847;48.058;7.810;2023-09-18T12:12:06;1.43;;;1.00;;
1699;SDS011;847;48.058;7.810;2023-09-18T12:14:33;1.20;;;1.10;;
1699;SDS011;847;48.058;7.810;2023-09-18T12:17:01;1.97;;;1.00;;
1699;SDS011;847;48.058;7.810;2023-09-18T12:19:30;0.80;;;0.73;;
1699;SDS011;847;48.058;7.810;2023-09-18T12:21:59;2.10;;;1.03;;
1699;SDS011;847;48.058;7.810;2023-09-18T12:24:26;1.90;;;1.17;;
1699;SDS011;847;48.058;7.810;2023-09-18T12:26:54;2.17;;;1.30;;
1699;SDS011;847;48.058;7.810;2023-09-18T12:29:21;1.60;;;1.20;;
1699;SDS011;847;48.058;7.810;2023-09-18T12:31:48;1.63;;;1.10;;
1699;SDS011;847;48.058;7.810;2023-09-18T12:34:17;2.50;;;1.40;;
1699;SDS011;847;48.058;7.810;2023-09-18T12:36:47;0.93;;;0.87;;
1699;SDS011;847;48.058;7.810;2023-09-18T12:39:17;1.87;;;1.00;;
1699;SDS011;847;48.058;7.810;2023-09-18T12:41:44;2.40;;;1.60;;
1699;SDS011;847;48.058;7.810;2023-09-18T12:44:12;1.80;;;1.07;;
1699;SDS011;847;48.058;7.810;2023-09-18T12:46:41;1.67;;;0.80;;
1699;SDS011;847;48.058;7.810;2023-09-18T12:49:15;2.97;;;1.10;;
1699;SDS011;847;48.058;7.810;2023-09-18T12:51:43;0.90;;;0.80;;
1699;SDS011;847;48.058;7.810;2023-09-18T12:54:12;1.40;;;1.07;;
1699;SDS011;847;48.058;7.810;2023-09-18T12:56:41;2.60;;;1.13;;
1699;SDS011;847;48.058;7.810;2023-09-18T12:59:08;2.77;;;1.17;;
1699;SDS011;847;48.058;7.810;2023-09-18T13:01:35;1.80;;;0.93;;
1699;SDS011;847;48.058;7.810;2023-09-18T13:04:03;2.13;;;0.80;;
1699;SDS011;847;48.058;7.810;2023-09-18T13:06:30;2.30;;;1.17;;
1699;SDS011;847;48.058;7.810;2023-09-18T13:11:54;1.77;;;0.90;;
1699;SDS011;847;48.058;7.810;2023-09-18T13:14:22;2.73;;;1.00;;
1699;SDS011;847;48.058;7.810;2023-09-18T13:16:49;1.90;;;1.13;;
1699;SDS011;847;48.058;7.810;2023-09-18T13:19:16;1.67;;;1.10;;
1699;SDS011;847;48.058;7.810;2023-09-18T13:21:47;1.10;;;1.00;;
1699;SDS011;847;48.058;7.810;2023-09-18T13:24:25;1.37;;;1.10;;
1699;SDS011;847;48.058;7.810;2023-09-18T13:26:53;3.20;;;1.30;;
1699;SDS011;847;48.058;7.810;2023-09-18T13:29:20;2.83;;;1.00;;
1699;SDS011;847;48.058;7.810;2023-09-18T13:31:47;2.30;;;1.23;;
1699;SDS011;847;48.058;7.810;2023-09-18T13:34:13;2.00;;;1.20;;
1699;SDS011;847;48.058;7.810;2023-09-18T13:36:43;1.50;;;0.93;;
1699;SDS011;847;48.058;7.810;2023-09-18T13:39:10;3.67;;;1.37;;
1699;SDS011;847;48.058;7.810;2023-09-18T13:41:38;1.13;;;1.00;;
1699;SDS011;847;48.058;7.810;2023-09-18T13:44:06;1.80;;;1.20;;
1699;SDS011;847;48.058;7.810;2023-09-18T13:46:33;3.07;;;1.17;;
1699;SDS011;847;48.058;7.810;2023-09-18T13:49:01;2.23;;;2.00;;
1699;SDS011;847;48.058;7.810;2023-09-18T13:51:28;1.80;;;1.20;;
1699;SDS011;847;48.058;7.810;2023-09-18T13:53:56;1.77;;;1.13;;
1699;SDS011;847;48.058;7.810;2023-09-18T13:56:22;2.37;;;1.30;;
1699;SDS011;847;48.058;7.810;2023-09-18T13:58:54;2.90;;;1.30;;
1699;SDS011;847;48.058;7.810;2023-09-18T14:01:21;3.60;;;1.27;;
1699;SDS011;847;48.058;7.810;2023-09-18T14:03:49;2.00;;;1.10;;
1699;SDS011;847;48.058;7.810;2023-09-18T14:06:17;2.40;;;0.80;;
1699;SDS011;847;48.058;7.810;2023-09-18T14:08:43;1.37;;;1.13;;
1699;SDS011;847;48.058;7.810;2023-09-18T14:11:10;1.47;;;1.17;;
1699;SDS011;847;48.058;7.810;2023-09-18T14:13:37;2.13;;;1.43;;
1699;SDS011;847;48.058;7.810;2023-09-18T14:16:05;1.90;;;1.10;;
1699;SDS011;847;48.058;7.810;2023-09-18T14:18:32;1.50;;;1.40;;
1699;SDS011;847;48.058;7.810;2023-09-18T14:20:59;2.60;;;1.20;;
1699;SDS011;847;48.058;7.810;2023-09-18T14:23:26;2.63;;;1.30;;
1699;SDS011;847;48.058;7.810;2023-09-18T14:25:53;2.20;;;1.37;;
1699;SDS011;847;48.058;7.810;2023-09-18T14:28:20;2.13;;;1.20;;
1699;SDS011;847;48.058;7.810;2023-09-18T14:30:47;1.20;;;1.10;;
1699;SDS011;847;48.058;7.810;2023-09-18T14:33:15;2.57;;;1.23;;
1699;SDS011;847;48.058;7.810;2023-09-18T14:35:41;1.43;;;1.20;;
1699;SDS011;847;48.058;7.810;2023-09-18T14:38:08;2.03;;;1.23;;
1699;SDS011;847;48.058;7.810;2023-09-18T14:40:35;2.40;;;1.13;;
1699;SDS011;847;48.058;7.810;2023-09-18T14:43:02;2.50;;;1.20;;
1699;SDS011;847;48.058;7.810;2023-09-18T14:45:30;0.83;;;0.83;;
1699;SDS011;847;48.058;7.810;2023-09-18T14:47:57;1.00;;;0.90;;
1699;SDS011;847;48.058;7.810;2023-09-18T14:50:26;1.83;;;0.90;;
1699;SDS011;847;48.058;7.810;2023-09-18T14:52:53;2.23;;;1.10;;
1699;SDS011;847;48.058;7.810;2023-09-18T14:55:20;1.00;;;0.90;;
1699;SDS011;847;48.058;7.810;2023-09-18T14:57:48;6.23;;;1.27;;
1699;SDS011;847;48.058;7.810;2023-09-18T15:00:15;1.93;;;1.03;;
1699;SDS011;847;48.058;7.810;2023-09-18T15:02:42;2.27;;;1.10;;
1699;SDS011;847;48.058;7.810;2023-09-18T15:05:09;2.33;;;1.00;;
1699;SDS011;847;48.058;7.810;2023-09-18T15:07:38;1.73;;;1.20;;
1699;SDS011;847;48.058;7.810;2023-09-18T15:10:05;1.90;;;1.17;;
1699;SDS011;847;48.058;7.810;2023-09-18T15:12:35;13.20;;;12.20;;
1699;SDS011;847;48.058;7.810;2023-09-18T15:15:02;4.23;;;2.13;;
1699;SDS011;847;48.058;7.810;2023-09-18T15:17:29;2.13;;;1.93;;
1699;SDS011;847;48.058;7.810;2023-09-18T15:19:57;3.17;;;1.90;;
1699;SDS011;847;48.058;7.810;2023-09-18T15:22:25;1.63;;;1.17;;
1699;SDS011;847;48.058;7.810;2023-09-18T15:24:54;1.63;;;1.30;;
1699;SDS011;847;48.058;7.810;2023-09-18T15:27:20;1.33;;;0.97;;
1699;SDS011;847;48.058;7.810;2023-09-18T15:29:47;3.67;;;1.30;;
1699;SDS011;847;48.058;7.810;2023-09-18T15:32:14;1.37;;;1.27;;
1699;SDS011;847;48.058;7.810;2023-09-18T15:34:41;2.07;;;1.40;;
1699;SDS011;847;48.058;7.810;2023-09-18T15:37:08;2.40;;;1.40;;
1699;SDS011;847;48.058;7.810;2023-09-18T15:39:35;1.57;;;1.23;;
1699;SDS011;847;48.058;7.810;2023-09-18T15:42:03;2.47;;;1.17;;
1699;SDS011;847;48.058;7.810;2023-09-18T15:44:30;1.40;;;1.20;;